Hlavní strana
METAR-TAF:

METAR-TAF

Letiště :

Cherokee County Airport

Canton, Georgie, Spojené státy americké

zeměpisná šířka: 34-18-38N, zeměpisná délka: 084-25-26W, výška: 372 m

Aktuální stav počasí

Zpráva byla vytvořena před 26 minutami, v 10:35 UTC
Bezvětří
Teplota 21°C
Vlhkost vzduchu 100%
Tlak 1022 hPa
Viditelnost: 11.3 km
Polojasno ve výšce 4900 ft
Zataženo ve výšce 6500 ft

METAR: KCNI 241035Z AUTO 00000KT 7SM SCT049 OVC065 21/21 A3019 RMK AO2

Čas: 07:01 (11:01 UTC)


TAF: chybějící

Stav a předpovědi počasí z více než 4 000 letišť (zprávy METAR a TAF).

Červené a žluté tečky na mapě představují dostupné meteorologické stanice.

Když kurzor umístíte na tečku, zobrazí se název stanice.

Pak kliknutím zobrazíte stav a předpověď počasí.

Chcete-li změnit mapu, kliknutím na zelené tlačítko se znaménkem +mapu přiblížíte, kliknutím na zelené tlačítko se znaménkem – mapu oddálíte a kliknutím na zelené šipky přejdete na sousední mapy.


METAR-TAF: